sensor_id;sensor_type;location;lat;lon;timestamp;P1;durP1;ratioP1;P2;durP2;ratioP2
19509;SDS011;9896;42.486;26.506;2022-08-02T00:02:21;47.57;;;24.53;;
19509;SDS011;9896;42.486;26.506;2022-08-02T00:04:47;51.83;;;25.33;;
19509;SDS011;9896;42.486;26.506;2022-08-02T00:07:12;47.07;;;24.70;;
19509;SDS011;9896;42.486;26.506;2022-08-02T00:09:39;34.03;;;18.73;;
19509;SDS011;9896;42.486;26.506;2022-08-02T00:12:05;29.73;;;16.13;;
19509;SDS011;9896;42.486;26.506;2022-08-02T00:14:31;26.73;;;13.60;;
19509;SDS011;9896;42.486;26.506;2022-08-02T00:16:57;25.03;;;11.70;;
19509;SDS011;9896;42.486;26.506;2022-08-02T00:19:22;20.57;;;11.07;;
19509;SDS011;9896;42.486;26.506;2022-08-02T00:21:48;13.87;;;8.53;;
19509;SDS011;9896;42.486;26.506;2022-08-02T00:24:13;13.50;;;8.10;;
19509;SDS011;9896;42.486;26.506;2022-08-02T00:26:39;13.43;;;8.10;;
19509;SDS011;9896;42.486;26.506;2022-08-02T00:29:04;13.87;;;8.47;;
19509;SDS011;9896;42.486;26.506;2022-08-02T00:31:30;12.77;;;7.87;;
19509;SDS011;9896;42.486;26.506;2022-08-02T00:33:55;15.53;;;8.63;;
19509;SDS011;9896;42.486;26.506;2022-08-02T00:36:21;21.20;;;9.13;;
19509;SDS011;9896;42.486;26.506;2022-08-02T00:38:46;14.20;;;8.93;;
19509;SDS011;9896;42.486;26.506;2022-08-02T00:41:16;10.40;;;7.13;;
19509;SDS011;9896;42.486;26.506;2022-08-02T00:43:44;12.10;;;7.77;;
19509;SDS011;9896;42.486;26.506;2022-08-02T00:46:11;18.03;;;7.60;;
19509;SDS011;9896;42.486;26.506;2022-08-02T00:48:37;17.97;;;8.00;;
19509;SDS011;9896;42.486;26.506;2022-08-02T00:51:02;10.20;;;5.70;;
19509;SDS011;9896;42.486;26.506;2022-08-02T00:53:28;9.97;;;7.30;;
19509;SDS011;9896;42.486;26.506;2022-08-02T00:55:54;14.07;;;6.93;;
19509;SDS011;9896;42.486;26.506;2022-08-02T00:58:20;8.17;;;6.33;;
19509;SDS011;9896;42.486;26.506;2022-08-02T01:00:46;10.33;;;6.50;;
19509;SDS011;9896;42.486;26.506;2022-08-02T01:03:11;12.67;;;7.50;;
19509;SDS011;9896;42.486;26.506;2022-08-02T01:05:37;11.50;;;6.67;;
19509;SDS011;9896;42.486;26.506;2022-08-02T01:08:03;11.00;;;6.73;;
19509;SDS011;9896;42.486;26.506;2022-08-02T01:10:28;10.07;;;6.83;;
19509;SDS011;9896;42.486;26.506;2022-08-02T01:12:54;10.57;;;5.70;;
19509;SDS011;9896;42.486;26.506;2022-08-02T01:15:19;9.93;;;5.70;;
19509;SDS011;9896;42.486;26.506;2022-08-02T01:17:48;9.20;;;6.43;;
19509;SDS011;9896;42.486;26.506;2022-08-02T01:25:56;10.67;;;6.90;;
19509;SDS011;9896;42.486;26.506;2022-08-02T01:31:48;14.43;;;5.90;;
19509;SDS011;9896;42.486;26.506;2022-08-02T01:36:57;12.90;;;6.10;;
19509;SDS011;9896;42.486;26.506;2022-08-02T01:39:27;8.87;;;5.93;;
19509;SDS011;9896;42.486;26.506;2022-08-02T01:41:55;10.30;;;6.80;;
19509;SDS011;9896;42.486;26.506;2022-08-02T01:44:23;8.63;;;6.17;;
19509;SDS011;9896;42.486;26.506;2022-08-02T01:46:50;9.13;;;5.97;;
19509;SDS011;9896;42.486;26.506;2022-08-02T01:49:21;8.53;;;5.77;;
19509;SDS011;9896;42.486;26.506;2022-08-02T01:51:51;10.30;;;5.53;;
19509;SDS011;9896;42.486;26.506;2022-08-02T01:54:36;9.83;;;6.03;;
19509;SDS011;9896;42.486;26.506;2022-08-02T01:57:04;7.37;;;5.87;;
19509;SDS011;9896;42.486;26.506;2022-08-02T01:59:31;7.83;;;6.00;;
19509;SDS011;9896;42.486;26.506;2022-08-02T02:01:59;9.13;;;5.60;;
19509;SDS011;9896;42.486;26.506;2022-08-02T02:04:27;7.57;;;5.10;;
19509;SDS011;9896;42.486;26.506;2022-08-02T02:06:55;14.03;;;6.67;;
19509;SDS011;9896;42.486;26.506;2022-08-02T02:09:22;9.57;;;6.50;;
19509;SDS011;9896;42.486;26.506;2022-08-02T02:11:52;13.57;;;6.33;;
19509;SDS011;9896;42.486;26.506;2022-08-02T02:14:20;11.43;;;6.83;;
19509;SDS011;9896;42.486;26.506;2022-08-02T02:16:47;12.37;;;6.20;;
19509;SDS011;9896;42.486;26.506;2022-08-02T02:19:15;9.77;;;6.33;;
19509;SDS011;9896;42.486;26.506;2022-08-02T02:21:43;12.70;;;6.70;;
19509;SDS011;9896;42.486;26.506;2022-08-02T02:24:09;11.67;;;7.70;;
19509;SDS011;9896;42.486;26.506;2022-08-02T02:26:35;10.93;;;6.93;;
19509;SDS011;9896;42.486;26.506;2022-08-02T02:29:03;13.07;;;6.83;;
19509;SDS011;9896;42.486;26.506;2022-08-02T02:31:37;12.33;;;7.57;;
19509;SDS011;9896;42.486;26.506;2022-08-02T02:34:07;13.77;;;7.50;;
19509;SDS011;9896;42.486;26.506;2022-08-02T02:36:38;10.70;;;8.40;;
19509;SDS011;9896;42.486;26.506;2022-08-02T02:39:06;10.00;;;7.93;;
19509;SDS011;9896;42.486;26.506;2022-08-02T02:41:33;10.57;;;7.57;;
19509;SDS011;9896;42.486;26.506;2022-08-02T02:44:02;11.73;;;8.23;;
19509;SDS011;9896;42.486;26.506;2022-08-02T02:46:29;11.37;;;8.10;;
19509;SDS011;9896;42.486;26.506;2022-08-02T02:48:56;16.80;;;8.20;;
19509;SDS011;9896;42.486;26.506;2022-08-02T02:51:23;14.37;;;7.90;;
19509;SDS011;9896;42.486;26.506;2022-08-02T02:53:50;12.27;;;8.00;;
19509;SDS011;9896;42.486;26.506;2022-08-02T02:56:16;9.63;;;7.63;;
19509;SDS011;9896;42.486;26.506;2022-08-02T02:58:43;12.23;;;7.83;;
19509;SDS011;9896;42.486;26.506;2022-08-02T03:01:10;10.20;;;7.20;;
19509;SDS011;9896;42.486;26.506;2022-08-02T03:03:55;9.03;;;7.50;;
19509;SDS011;9896;42.486;26.506;2022-08-02T03:06:23;9.10;;;7.73;;
19509;SDS011;9896;42.486;26.506;2022-08-02T03:08:49;10.70;;;8.43;;
19509;SDS011;9896;42.486;26.506;2022-08-02T03:11:16;10.23;;;8.07;;
19509;SDS011;9896;42.486;26.506;2022-08-02T03:13:42;11.80;;;8.27;;
19509;SDS011;9896;42.486;26.506;2022-08-02T03:16:08;10.30;;;7.67;;
19509;SDS011;9896;42.486;26.506;2022-08-02T03:18:36;11.43;;;8.13;;
19509;SDS011;9896;42.486;26.506;2022-08-02T03:21:05;12.73;;;8.57;;
19509;SDS011;9896;42.486;26.506;2022-08-02T03:23:38;9.43;;;8.30;;
19509;SDS011;9896;42.486;26.506;2022-08-02T03:26:06;12.83;;;8.33;;
19509;SDS011;9896;42.486;26.506;2022-08-02T03:28:32;11.23;;;7.90;;
19509;SDS011;9896;42.486;26.506;2022-08-02T03:30:58;11.90;;;7.37;;
19509;SDS011;9896;42.486;26.506;2022-08-02T03:33:25;12.63;;;8.00;;
19509;SDS011;9896;42.486;26.506;2022-08-02T03:35:53;11.83;;;7.80;;
19509;SDS011;9896;42.486;26.506;2022-08-02T03:38:22;17.83;;;8.43;;
19509;SDS011;9896;42.486;26.506;2022-08-02T03:40:49;9.90;;;7.43;;
19509;SDS011;9896;42.486;26.506;2022-08-02T03:43:15;12.43;;;7.90;;
19509;SDS011;9896;42.486;26.506;2022-08-02T03:45:43;9.93;;;7.57;;
19509;SDS011;9896;42.486;26.506;2022-08-02T03:48:13;12.93;;;8.00;;
19509;SDS011;9896;42.486;26.506;2022-08-02T03:50:40;10.77;;;8.33;;
19509;SDS011;9896;42.486;26.506;2022-08-02T03:53:07;13.30;;;8.20;;
19509;SDS011;9896;42.486;26.506;2022-08-02T03:55:34;16.30;;;8.43;;
19509;SDS011;9896;42.486;26.506;2022-08-02T03:58:00;10.67;;;7.87;;
19509;SDS011;9896;42.486;26.506;2022-08-02T04:00:26;13.33;;;7.87;;
19509;SDS011;9896;42.486;26.506;2022-08-02T04:02:52;8.47;;;7.57;;
19509;SDS011;9896;42.486;26.506;2022-08-02T04:05:17;11.93;;;7.70;;
19509;SDS011;9896;42.486;26.506;2022-08-02T04:07:43;11.73;;;7.80;;
19509;SDS011;9896;42.486;26.506;2022-08-02T04:10:09;13.87;;;8.00;;
19509;SDS011;9896;42.486;26.506;2022-08-02T04:12:35;13.97;;;8.30;;
19509;SDS011;9896;42.486;26.506;2022-08-02T04:15:02;16.17;;;8.83;;
19509;SDS011;9896;42.486;26.506;2022-08-02T04:17:30;14.50;;;8.17;;
19509;SDS011;9896;42.486;26.506;2022-08-02T04:20:01;16.27;;;7.90;;
19509;SDS011;9896;42.486;26.506;2022-08-02T04:22:35;14.63;;;8.47;;
19509;SDS011;9896;42.486;26.506;2022-08-02T04:25:05;10.10;;;7.23;;
19509;SDS011;9896;42.486;26.506;2022-08-02T04:27:33;15.03;;;7.70;;
19509;SDS011;9896;42.486;26.506;2022-08-02T04:30:01;12.60;;;7.07;;
19509;SDS011;9896;42.486;26.506;2022-08-02T04:32:28;11.10;;;7.30;;
19509;SDS011;9896;42.486;26.506;2022-08-02T04:34:56;11.30;;;7.93;;
19509;SDS011;9896;42.486;26.506;2022-08-02T04:37:22;10.73;;;7.27;;
19509;SDS011;9896;42.486;26.506;2022-08-02T04:39:49;14.40;;;7.60;;
19509;SDS011;9896;42.486;26.506;2022-08-02T04:42:21;12.20;;;7.23;;
19509;SDS011;9896;42.486;26.506;2022-08-02T04:44:48;16.00;;;6.50;;
19509;SDS011;9896;42.486;26.506;2022-08-02T04:47:14;9.67;;;5.80;;
19509;SDS011;9896;42.486;26.506;2022-08-02T04:49:40;12.50;;;5.90;;
19509;SDS011;9896;42.486;26.506;2022-08-02T04:52:06;15.47;;;8.90;;
19509;SDS011;9896;42.486;26.506;2022-08-02T04:54:31;15.23;;;7.93;;
19509;SDS011;9896;42.486;26.506;2022-08-02T04:56:57;13.10;;;6.33;;
19509;SDS011;9896;42.486;26.506;2022-08-02T04:59:22;14.83;;;7.17;;
19509;SDS011;9896;42.486;26.506;2022-08-02T05:01:48;12.10;;;4.87;;
19509;SDS011;9896;42.486;26.506;2022-08-02T05:04:13;9.63;;;4.80;;
19509;SDS011;9896;42.486;26.506;2022-08-02T05:06:39;7.13;;;4.33;;
19509;SDS011;9896;42.486;26.506;2022-08-02T05:09:04;6.27;;;4.10;;
19509;SDS011;9896;42.486;26.506;2022-08-02T05:11:30;10.60;;;3.93;;
19509;SDS011;9896;42.486;26.506;2022-08-02T05:13:56;13.27;;;4.43;;
19509;SDS011;9896;42.486;26.506;2022-08-02T05:16:21;6.83;;;3.40;;
19509;SDS011;9896;42.486;26.506;2022-08-02T05:18:50;8.20;;;3.90;;
19509;SDS011;9896;42.486;26.506;2022-08-02T05:21:16;8.80;;;4.30;;
19509;SDS011;9896;42.486;26.506;2022-08-02T05:23:42;4.33;;;3.30;;
19509;SDS011;9896;42.486;26.506;2022-08-02T05:26:08;7.07;;;5.47;;
19509;SDS011;9896;42.486;26.506;2022-08-02T05:28:34;11.70;;;3.13;;
19509;SDS011;9896;42.486;26.506;2022-08-02T05:31:00;5.20;;;3.43;;
19509;SDS011;9896;42.486;26.506;2022-08-02T05:33:25;5.93;;;3.10;;
19509;SDS011;9896;42.486;26.506;2022-08-02T05:35:51;6.73;;;3.20;;
19509;SDS011;9896;42.486;26.506;2022-08-02T05:38:16;9.23;;;3.47;;
19509;SDS011;9896;42.486;26.506;2022-08-02T05:40:42;11.20;;;3.50;;
19509;SDS011;9896;42.486;26.506;2022-08-02T05:43:14;5.80;;;3.20;;
19509;SDS011;9896;42.486;26.506;2022-08-02T05:45:39;4.63;;;3.03;;
19509;SDS011;9896;42.486;26.506;2022-08-02T05:48:06;4.10;;;2.80;;
19509;SDS011;9896;42.486;26.506;2022-08-02T05:50:33;2.80;;;2.53;;
19509;SDS011;9896;42.486;26.506;2022-08-02T05:53:04;5.73;;;3.23;;
19509;SDS011;9896;42.486;26.506;2022-08-02T05:55:34;5.53;;;3.40;;
19509;SDS011;9896;42.486;26.506;2022-08-02T06:00:44;5.13;;;3.43;;
19509;SDS011;9896;42.486;26.506;2022-08-02T06:08:41;4.53;;;3.27;;
19509;SDS011;9896;42.486;26.506;2022-08-02T06:11:11;8.53;;;4.10;;
19509;SDS011;9896;42.486;26.506;2022-08-02T06:13:40;4.73;;;3.30;;
19509;SDS011;9896;42.486;26.506;2022-08-02T06:16:06;3.70;;;2.73;;
19509;SDS011;9896;42.486;26.506;2022-08-02T06:18:32;3.53;;;3.20;;
19509;SDS011;9896;42.486;26.506;2022-08-02T06:21:03;6.57;;;3.00;;
19509;SDS011;9896;42.486;26.506;2022-08-02T06:23:30;5.37;;;3.60;;
19509;SDS011;9896;42.486;26.506;2022-08-02T06:25:56;8.47;;;3.57;;
19509;SDS011;9896;42.486;26.506;2022-08-02T06:28:22;5.93;;;3.47;;
19509;SDS011;9896;42.486;26.506;2022-08-02T06:30:48;5.90;;;3.17;;
19509;SDS011;9896;42.486;26.506;2022-08-02T06:33:15;5.47;;;2.93;;
19509;SDS011;9896;42.486;26.506;2022-08-02T06:35:45;3.37;;;2.80;;
19509;SDS011;9896;42.486;26.506;2022-08-02T06:38:23;5.53;;;3.10;;
19509;SDS011;9896;42.486;26.506;2022-08-02T06:41:00;5.00;;;2.50;;
19509;SDS011;9896;42.486;26.506;2022-08-02T06:46:17;6.30;;;2.90;;
19509;SDS011;9896;42.486;26.506;2022-08-02T06:48:43;4.38;;;3.05;;
19509;SDS011;9896;42.486;26.506;2022-08-02T06:51:09;3.93;;;2.80;;
19509;SDS011;9896;42.486;26.506;2022-08-02T06:53:35;4.00;;;2.07;;
19509;SDS011;9896;42.486;26.506;2022-08-02T06:56:00;7.57;;;2.60;;
19509;SDS011;9896;42.486;26.506;2022-08-02T06:58:27;6.15;;;2.05;;
19509;SDS011;9896;42.486;26.506;2022-08-02T07:00:54;5.83;;;3.07;;
19509;SDS011;9896;42.486;26.506;2022-08-02T07:03:23;5.53;;;2.03;;
19509;SDS011;9896;42.486;26.506;2022-08-02T07:05:52;3.97;;;2.47;;
19509;SDS011;9896;42.486;26.506;2022-08-02T07:08:18;4.10;;;2.35;;
19509;SDS011;9896;42.486;26.506;2022-08-02T07:10:44;6.50;;;2.42;;
19509;SDS011;9896;42.486;26.506;2022-08-02T07:13:10;2.35;;;2.15;;
19509;SDS011;9896;42.486;26.506;2022-08-02T07:15:36;2.95;;;2.10;;
19509;SDS011;9896;42.486;26.506;2022-08-02T07:18:03;2.50;;;2.30;;
19509;SDS011;9896;42.486;26.506;2022-08-02T07:20:30;7.10;;;3.47;;
19509;SDS011;9896;42.486;26.506;2022-08-02T07:22:56;4.80;;;2.78;;
19509;SDS011;9896;42.486;26.506;2022-08-02T07:25:22;7.10;;;2.92;;
19509;SDS011;9896;42.486;26.506;2022-08-02T07:27:48;4.38;;;2.70;;
19509;SDS011;9896;42.486;26.506;2022-08-02T07:30:13;5.70;;;2.38;;
19509;SDS011;9896;42.486;26.506;2022-08-02T07:32:39;3.58;;;2.40;;
19509;SDS011;9896;42.486;26.506;2022-08-02T07:35:05;4.80;;;2.97;;
19509;SDS011;9896;42.486;26.506;2022-08-02T07:37:31;3.10;;;2.80;;
19509;SDS011;9896;42.486;26.506;2022-08-02T07:39:58;4.28;;;2.50;;
19509;SDS011;9896;42.486;26.506;2022-08-02T07:42:24;6.80;;;2.85;;
19509;SDS011;9896;42.486;26.506;2022-08-02T07:44:50;6.65;;;2.72;;
19509;SDS011;9896;42.486;26.506;2022-08-02T07:47:16;4.25;;;2.70;;
19509;SDS011;9896;42.486;26.506;2022-08-02T07:49:42;4.45;;;3.10;;
19509;SDS011;9896;42.486;26.506;2022-08-02T07:52:07;4.65;;;2.70;;
19509;SDS011;9896;42.486;26.506;2022-08-02T07:54:33;3.33;;;2.83;;
19509;SDS011;9896;42.486;26.506;2022-08-02T07:56:58;4.68;;;3.33;;
19509;SDS011;9896;42.486;26.506;2022-08-02T07:59:25;8.52;;;2.90;;
19509;SDS011;9896;42.486;26.506;2022-08-02T08:01:51;3.83;;;3.15;;
19509;SDS011;9896;42.486;26.506;2022-08-02T08:04:17;4.55;;;2.83;;
19509;SDS011;9896;42.486;26.506;2022-08-02T08:06:44;2.85;;;2.40;;
19509;SDS011;9896;42.486;26.506;2022-08-02T08:09:09;5.15;;;2.85;;
19509;SDS011;9896;42.486;26.506;2022-08-02T08:11:35;3.88;;;2.80;;
19509;SDS011;9896;42.486;26.506;2022-08-02T08:14:01;6.78;;;4.53;;
19509;SDS011;9896;42.486;26.506;2022-08-02T08:16:28;2.92;;;2.50;;
19509;SDS011;9896;42.486;26.506;2022-08-02T08:18:54;2.83;;;2.42;;
19509;SDS011;9896;42.486;26.506;2022-08-02T08:21:20;5.72;;;2.95;;
19509;SDS011;9896;42.486;26.506;2022-08-02T08:23:46;3.88;;;2.75;;
19509;SDS011;9896;42.486;26.506;2022-08-02T08:26:11;4.97;;;3.03;;
19509;SDS011;9896;42.486;26.506;2022-08-02T08:28:37;2.95;;;2.60;;
19509;SDS011;9896;42.486;26.506;2022-08-02T08:31:03;3.30;;;2.58;;
19509;SDS011;9896;42.486;26.506;2022-08-02T08:33:28;5.57;;;3.67;;
19509;SDS011;9896;42.486;26.506;2022-08-02T08:35:54;3.30;;;3.00;;
19509;SDS011;9896;42.486;26.506;2022-08-02T08:38:20;8.77;;;2.75;;
19509;SDS011;9896;42.486;26.506;2022-08-02T08:40:49;3.03;;;2.75;;
19509;SDS011;9896;42.486;26.506;2022-08-02T08:43:15;3.08;;;2.53;;
19509;SDS011;9896;42.486;26.506;2022-08-02T08:45:44;4.05;;;3.05;;
19509;SDS011;9896;42.486;26.506;2022-08-02T08:48:12;3.60;;;3.30;;
19509;SDS011;9896;42.486;26.506;2022-08-02T08:50:55;4.57;;;3.03;;
19509;SDS011;9896;42.486;26.506;2022-08-02T08:53:24;4.47;;;2.60;;
19509;SDS011;9896;42.486;26.506;2022-08-02T08:55:54;4.35;;;2.38;;
19509;SDS011;9896;42.486;26.506;2022-08-02T08:58:22;2.42;;;2.20;;
19509;SDS011;9896;42.486;26.506;2022-08-02T09:00:48;13.45;;;3.17;;
19509;SDS011;9896;42.486;26.506;2022-08-02T09:03:14;4.47;;;3.50;;
19509;SDS011;9896;42.486;26.506;2022-08-02T09:05:40;7.22;;;3.15;;
19509;SDS011;9896;42.486;26.506;2022-08-02T09:08:07;3.88;;;3.08;;
19509;SDS011;9896;42.486;26.506;2022-08-02T09:13:20;2.90;;;2.70;;
19509;SDS011;9896;42.486;26.506;2022-08-02T09:16:03;3.63;;;2.55;;
19509;SDS011;9896;42.486;26.506;2022-08-02T09:18:31;2.58;;;2.38;;
19509;SDS011;9896;42.486;26.506;2022-08-02T09:21:00;2.90;;;2.70;;
19509;SDS011;9896;42.486;26.506;2022-08-02T09:23:36;3.08;;;2.78;;
19509;SDS011;9896;42.486;26.506;2022-08-02T09:26:07;4.28;;;2.90;;
19509;SDS011;9896;42.486;26.506;2022-08-02T09:28:35;7.03;;;5.78;;
19509;SDS011;9896;42.486;26.506;2022-08-02T09:31:03;5.05;;;2.60;;
19509;SDS011;9896;42.486;26.506;2022-08-02T09:33:31;2.33;;;2.13;;
19509;SDS011;9896;42.486;26.506;2022-08-02T09:36:03;2.85;;;2.28;;
19509;SDS011;9896;42.486;26.506;2022-08-02T09:38:33;3.75;;;2.30;;
19509;SDS011;9896;42.486;26.506;2022-08-02T09:41:01;4.60;;;2.67;;
19509;SDS011;9896;42.486;26.506;2022-08-02T09:43:37;2.33;;;2.10;;
19509;SDS011;9896;42.486;26.506;2022-08-02T09:46:10;2.42;;;2.22;;
19509;SDS011;9896;42.486;26.506;2022-08-02T09:48:44;4.93;;;2.03;;
19509;SDS011;9896;42.486;26.506;2022-08-02T09:51:31;3.70;;;2.40;;
19509;SDS011;9896;42.486;26.506;2022-08-02T09:54:00;5.90;;;2.05;;
19509;SDS011;9896;42.486;26.506;2022-08-02T09:56:38;5.85;;;2.30;;
19509;SDS011;9896;42.486;26.506;2022-08-02T09:59:09;5.57;;;2.38;;
19509;SDS011;9896;42.486;26.506;2022-08-02T10:01:35;3.22;;;2.20;;
19509;SDS011;9896;42.486;26.506;2022-08-02T10:04:03;3.38;;;2.28;;
19509;SDS011;9896;42.486;26.506;2022-08-02T10:06:30;2.50;;;2.30;;
19509;SDS011;9896;42.486;26.506;2022-08-02T10:08:57;2.10;;;2.00;;
19509;SDS011;9896;42.486;26.506;2022-08-02T10:11:23;3.45;;;1.83;;
19509;SDS011;9896;42.486;26.506;2022-08-02T10:13:50;12.25;;;4.85;;
19509;SDS011;9896;42.486;26.506;2022-08-02T10:16:17;2.10;;;1.80;;
19509;SDS011;9896;42.486;26.506;2022-08-02T10:18:47;9.13;;;2.35;;
19509;SDS011;9896;42.486;26.506;2022-08-02T10:21:25;2.00;;;1.80;;
19509;SDS011;9896;42.486;26.506;2022-08-02T10:24:15;4.65;;;2.03;;
19509;SDS011;9896;42.486;26.506;2022-08-02T10:26:42;5.13;;;2.05;;
19509;SDS011;9896;42.486;26.506;2022-08-02T10:29:09;2.40;;;2.17;;
19509;SDS011;9896;42.486;26.506;2022-08-02T10:31:50;2.40;;;2.08;;
19509;SDS011;9896;42.486;26.506;2022-08-02T10:34:22;2.58;;;2.38;;
19509;SDS011;9896;42.486;26.506;2022-08-02T10:36:56;3.45;;;2.08;;
19509;SDS011;9896;42.486;26.506;2022-08-02T10:39:25;2.95;;;1.90;;
19509;SDS011;9896;42.486;26.506;2022-08-02T10:41:51;3.30;;;2.28;;
19509;SDS011;9896;42.486;26.506;2022-08-02T10:44:21;2.58;;;1.90;;
19509;SDS011;9896;42.486;26.506;2022-08-02T10:46:46;1.95;;;1.85;;
19509;SDS011;9896;42.486;26.506;2022-08-02T10:49:15;2.00;;;1.75;;
19509;SDS011;9896;42.486;26.506;2022-08-02T10:54:16;1.70;;;1.60;;
19509;SDS011;9896;42.486;26.506;2022-08-02T10:56:45;3.83;;;1.88;;
19509;SDS011;9896;42.486;26.506;2022-08-02T10:59:25;3.83;;;1.92;;
19509;SDS011;9896;42.486;26.506;2022-08-02T11:02:00;3.45;;;2.20;;
19509;SDS011;9896;42.486;26.506;2022-08-02T11:07:16;2.40;;;2.20;;
19509;SDS011;9896;42.486;26.506;2022-08-02T11:09:47;3.97;;;1.88;;
19509;SDS011;9896;42.486;26.506;2022-08-02T11:12:15;3.53;;;1.85;;
19509;SDS011;9896;42.486;26.506;2022-08-02T11:14:43;2.55;;;1.80;;
19509;SDS011;9896;42.486;26.506;2022-08-02T11:17:11;2.95;;;1.63;;
19509;SDS011;9896;42.486;26.506;2022-08-02T11:22:32;2.65;;;2.13;;
19509;SDS011;9896;42.486;26.506;2022-08-02T11:25:13;2.13;;;1.88;;
19509;SDS011;9896;42.486;26.506;2022-08-02T11:27:47;4.13;;;1.77;;
19509;SDS011;9896;42.486;26.506;2022-08-02T11:30:36;1.70;;;1.60;;
19509;SDS011;9896;42.486;26.506;2022-08-02T11:33:02;1.88;;;1.67;;
19509;SDS011;9896;42.486;26.506;2022-08-02T11:35:34;5.00;;;2.00;;
19509;SDS011;9896;42.486;26.506;2022-08-02T11:38:35;2.35;;;1.90;;
19509;SDS011;9896;42.486;26.506;2022-08-02T11:40:53;3.75;;;2.00;;
19509;SDS011;9896;42.486;26.506;2022-08-02T11:43:20;3.03;;;2.00;;
19509;SDS011;9896;42.486;26.506;2022-08-02T11:45:48;2.95;;;1.83;;
19509;SDS011;9896;42.486;26.506;2022-08-02T11:48:27;2.95;;;1.90;;
19509;SDS011;9896;42.486;26.506;2022-08-02T11:51:01;4.65;;;1.73;;
19509;SDS011;9896;42.486;26.506;2022-08-02T11:53:28;4.97;;;2.05;;
19509;SDS011;9896;42.486;26.506;2022-08-02T11:55:55;4.03;;;2.10;;
19509;SDS011;9896;42.486;26.506;2022-08-02T11:58:21;4.50;;;2.40;;
19509;SDS011;9896;42.486;26.506;2022-08-02T12:00:46;2.85;;;2.08;;
19509;SDS011;9896;42.486;26.506;2022-08-02T12:03:12;3.97;;;2.00;;
19509;SDS011;9896;42.486;26.506;2022-08-02T12:05:37;1.80;;;1.70;;
19509;SDS011;9896;42.486;26.506;2022-08-02T12:08:06;3.08;;;2.17;;
19509;SDS011;9896;42.486;26.506;2022-08-02T12:10:32;4.72;;;2.65;;
19509;SDS011;9896;42.486;26.506;2022-08-02T12:12:58;5.35;;;1.70;;
19509;SDS011;9896;42.486;26.506;2022-08-02T12:15:31;2.20;;;1.63;;
19509;SDS011;9896;42.486;26.506;2022-08-02T12:18:11;1.70;;;1.60;;
19509;SDS011;9896;42.486;26.506;2022-08-02T12:21:00;2.05;;;1.63;;
19509;SDS011;9896;42.486;26.506;2022-08-02T12:23:26;1.88;;;1.60;;
19509;SDS011;9896;42.486;26.506;2022-08-02T12:25:59;5.28;;;1.70;;
19509;SDS011;9896;42.486;26.506;2022-08-02T12:28:37;3.70;;;2.13;;
19509;SDS011;9896;42.486;26.506;2022-08-02T12:31:05;3.50;;;2.03;;
19509;SDS011;9896;42.486;26.506;2022-08-02T12:33:49;5.47;;;2.53;;
19509;SDS011;9896;42.486;26.506;2022-08-02T12:36:20;1.70;;;1.60;;
19509;SDS011;9896;42.486;26.506;2022-08-02T12:38:57;5.57;;;1.98;;
19509;SDS011;9896;42.486;26.506;2022-08-02T12:41:24;4.30;;;2.28;;
19509;SDS011;9896;42.486;26.506;2022-08-02T12:43:51;3.38;;;2.10;;
19509;SDS011;9896;42.486;26.506;2022-08-02T12:46:19;2.38;;;2.08;;
19509;SDS011;9896;42.486;26.506;2022-08-02T12:48:47;6.97;;;2.40;;
19509;SDS011;9896;42.486;26.506;2022-08-02T12:51:19;2.75;;;2.00;;
19509;SDS011;9896;42.486;26.506;2022-08-02T12:53:49;2.45;;;2.20;;
19509;SDS011;9896;42.486;26.506;2022-08-02T12:56:29;8.93;;;3.03;;
19509;SDS011;9896;42.486;26.506;2022-08-02T12:58:56;3.08;;;2.28;;
19509;SDS011;9896;42.486;26.506;2022-08-02T13:01:22;3.97;;;2.80;;
19509;SDS011;9896;42.486;26.506;2022-08-02T13:03:52;4.03;;;2.40;;
19509;SDS011;9896;42.486;26.506;2022-08-02T13:06:19;4.07;;;1.80;;
19509;SDS011;9896;42.486;26.506;2022-08-02T13:08:45;1.92;;;1.83;;
19509;SDS011;9896;42.486;26.506;2022-08-02T13:11:11;4.00;;;2.00;;
19509;SDS011;9896;42.486;26.506;2022-08-02T13:13:36;2.08;;;1.92;;
19509;SDS011;9896;42.486;26.506;2022-08-02T13:16:02;2.97;;;2.00;;
19509;SDS011;9896;42.486;26.506;2022-08-02T13:18:28;5.45;;;2.40;;
19509;SDS011;9896;42.486;26.506;2022-08-02T13:20:54;2.28;;;2.08;;
19509;SDS011;9896;42.486;26.506;2022-08-02T13:23:19;3.28;;;1.70;;
19509;SDS011;9896;42.486;26.506;2022-08-02T13:25:45;2.95;;;1.70;;
19509;SDS011;9896;42.486;26.506;2022-08-02T13:28:11;2.78;;;1.90;;
19509;SDS011;9896;42.486;26.506;2022-08-02T13:30:36;2.05;;;1.88;;
19509;SDS011;9896;42.486;26.506;2022-08-02T13:33:02;2.00;;;1.80;;
19509;SDS011;9896;42.486;26.506;2022-08-02T13:35:28;3.30;;;2.03;;
19509;SDS011;9896;42.486;26.506;2022-08-02T13:37:54;4.45;;;2.40;;
19509;SDS011;9896;42.486;26.506;2022-08-02T13:40:19;4.45;;;2.28;;
19509;SDS011;9896;42.486;26.506;2022-08-02T13:42:45;3.63;;;1.77;;
19509;SDS011;9896;42.486;26.506;2022-08-02T13:45:10;3.72;;;2.13;;
19509;SDS011;9896;42.486;26.506;2022-08-02T13:47:37;1.60;;;1.50;;
19509;SDS011;9896;42.486;26.506;2022-08-02T13:50:03;1.90;;;1.80;;
19509;SDS011;9896;42.486;26.506;2022-08-02T13:52:30;3.20;;;1.73;;
19509;SDS011;9896;42.486;26.506;2022-08-02T13:54:55;5.63;;;2.38;;
19509;SDS011;9896;42.486;26.506;2022-08-02T13:57:21;2.55;;;1.70;;
19509;SDS011;9896;42.486;26.506;2022-08-02T13:59:46;2.90;;;1.70;;
19509;SDS011;9896;42.486;26.506;2022-08-02T14:02:12;4.43;;;2.97;;
19509;SDS011;9896;42.486;26.506;2022-08-02T14:04:37;2.10;;;2.00;;
19509;SDS011;9896;42.486;26.506;2022-08-02T14:07:03;2.83;;;1.92;;
19509;SDS011;9896;42.486;26.506;2022-08-02T14:09:28;3.03;;;1.88;;
19509;SDS011;9896;42.486;26.506;2022-08-02T14:11:57;3.67;;;2.13;;
19509;SDS011;9896;42.486;26.506;2022-08-02T14:14:23;4.95;;;3.53;;
19509;SDS011;9896;42.486;26.506;2022-08-02T14:16:49;10.20;;;3.20;;
19509;SDS011;9896;42.486;26.506;2022-08-02T14:19:15;3.33;;;2.47;;
19509;SDS011;9896;42.486;26.506;2022-08-02T14:21:40;2.92;;;2.22;;
19509;SDS011;9896;42.486;26.506;2022-08-02T14:24:06;4.10;;;2.67;;
19509;SDS011;9896;42.486;26.506;2022-08-02T14:26:31;5.10;;;2.80;;
19509;SDS011;9896;42.486;26.506;2022-08-02T14:28:58;5.50;;;3.10;;
19509;SDS011;9896;42.486;26.506;2022-08-02T14:31:24;8.63;;;4.38;;
19509;SDS011;9896;42.486;26.506;2022-08-02T14:33:49;4.25;;;3.08;;
19509;SDS011;9896;42.486;26.506;2022-08-02T14:36:15;8.27;;;3.15;;
19509;SDS011;9896;42.486;26.506;2022-08-02T14:38:40;5.00;;;2.88;;
19509;SDS011;9896;42.486;26.506;2022-08-02T14:41:06;3.92;;;2.40;;
19509;SDS011;9896;42.486;26.506;2022-08-02T14:43:31;3.45;;;2.47;;
19509;SDS011;9896;42.486;26.506;2022-08-02T14:46:15;5.47;;;2.80;;
19509;SDS011;9896;42.486;26.506;2022-08-02T14:48:41;7.00;;;3.90;;
19509;SDS011;9896;42.486;26.506;2022-08-02T14:51:06;10.38;;;3.78;;
19509;SDS011;9896;42.486;26.506;2022-08-02T14:53:32;3.88;;;3.00;;
19509;SDS011;9896;42.486;26.506;2022-08-02T14:55:59;2.28;;;2.08;;
19509;SDS011;9896;42.486;26.506;2022-08-02T14:58:24;2.35;;;1.85;;
19509;SDS011;9896;42.486;26.506;2022-08-02T15:00:50;2.53;;;2.17;;
19509;SDS011;9896;42.486;26.506;2022-08-02T15:03:15;2.28;;;1.90;;
19509;SDS011;9896;42.486;26.506;2022-08-02T15:05:42;5.60;;;1.85;;
19509;SDS011;9896;42.486;26.506;2022-08-02T15:08:08;3.58;;;2.08;;
19509;SDS011;9896;42.486;26.506;2022-08-02T15:10:33;5.45;;;3.10;;
19509;SDS011;9896;42.486;26.506;2022-08-02T15:12:59;7.63;;;3.90;;
19509;SDS011;9896;42.486;26.506;2022-08-02T15:15:24;4.72;;;2.42;;
19509;SDS011;9896;42.486;26.506;2022-08-02T15:17:50;5.30;;;2.92;;
19509;SDS011;9896;42.486;26.506;2022-08-02T15:20:16;5.82;;;3.25;;
19509;SDS011;9896;42.486;26.506;2022-08-02T15:22:41;6.22;;;2.80;;